sensor_id;sensor_type;location;lat;lon;timestamp;pressure;altitude;pressure_sealevel;temperature;humidity
2188;BME280;1100;52.014;8.540;2023-12-20T00:01:17;99822.09;;;4.66;100.00
2188;BME280;1100;52.014;8.540;2023-12-20T00:03:42;99820.16;;;4.63;100.00
2188;BME280;1100;52.014;8.540;2023-12-20T00:06:07;99816.22;;;4.60;100.00
2188;BME280;1100;52.014;8.540;2023-12-20T00:08:33;99829.63;;;4.54;100.00
2188;BME280;1100;52.014;8.540;2023-12-20T00:10:58;99827.28;;;4.53;100.00
2188;BME280;1100;52.014;8.540;2023-12-20T00:13:23;99833.19;;;4.51;100.00
2188;BME280;1100;52.014;8.540;2023-12-20T00:15:48;99832.00;;;4.52;100.00
2188;BME280;1100;52.014;8.540;2023-12-20T00:18:14;99831.25;;;4.52;100.00
2188;BME280;1100;52.014;8.540;2023-12-20T00:20:39;99837.50;;;4.52;100.00
2188;BME280;1100;52.014;8.540;2023-12-20T00:23:04;99832.81;;;4.49;100.00
2188;BME280;1100;52.014;8.540;2023-12-20T00:25:30;99843.41;;;4.51;100.00
2188;BME280;1100;52.014;8.540;2023-12-20T00:27:55;99846.97;;;4.51;100.00
2188;BME280;1100;52.014;8.540;2023-12-20T00:30:20;99854.00;;;4.56;100.00
2188;BME280;1100;52.014;8.540;2023-12-20T00:32:46;99853.22;;;4.55;100.00
2188;BME280;1100;52.014;8.540;2023-12-20T00:35:15;99860.31;;;4.56;100.00
2188;BME280;1100;52.014;8.540;2023-12-20T00:37:42;99852.81;;;4.57;100.00
2188;BME280;1100;52.014;8.540;2023-12-20T00:40:08;99851.66;;;4.58;100.00
2188;BME280;1100;52.014;8.540;2023-12-20T00:42:33;99856.75;;;4.59;100.00
2188;BME280;1100;52.014;8.540;2023-12-20T00:44:59;99849.66;;;4.58;100.00
2188;BME280;1100;52.014;8.540;2023-12-20T00:47:24;99846.91;;;4.58;100.00
2188;BME280;1100;52.014;8.540;2023-12-20T00:49:50;99845.34;;;4.57;100.00
2188;BME280;1100;52.014;8.540;2023-12-20T00:52:15;99835.16;;;4.54;100.00
2188;BME280;1100;52.014;8.540;2023-12-20T00:54:42;99837.50;;;4.52;100.00
2188;BME280;1100;52.014;8.540;2023-12-20T00:57:08;99841.06;;;4.53;100.00
2188;BME280;1100;52.014;8.540;2023-12-20T00:59:34;99850.09;;;4.53;100.00
2188;BME280;1100;52.014;8.540;2023-12-20T01:01:59;99836.75;;;4.52;100.00
2188;BME280;1100;52.014;8.540;2023-12-20T01:04:24;99847.34;;;4.53;100.00
2188;BME280;1100;52.014;8.540;2023-12-20T01:06:49;99851.66;;;4.54;100.00
2188;BME280;1100;52.014;8.540;2023-12-20T01:09:15;99848.50;;;4.56;100.00
2188;BME280;1100;52.014;8.540;2023-12-20T01:11:40;99848.13;;;4.54;100.00
2188;BME280;1100;52.014;8.540;2023-12-20T01:14:05;99856.75;;;4.56;100.00
2188;BME280;1100;52.014;8.540;2023-12-20T01:16:31;99863.06;;;4.56;100.00
2188;BME280;1100;52.014;8.540;2023-12-20T01:18:56;99857.56;;;4.56;100.00
2188;BME280;1100;52.014;8.540;2023-12-20T01:21:21;99865.03;;;4.56;100.00
2188;BME280;1100;52.014;8.540;2023-12-20T01:23:47;99861.88;;;4.54;100.00
2188;BME280;1100;52.014;8.540;2023-12-20T01:26:12;99858.78;;;4.48;100.00
2188;BME280;1100;52.014;8.540;2023-12-20T01:28:38;99869.41;;;4.46;100.00
2188;BME280;1100;52.014;8.540;2023-12-20T01:31:03;99869.03;;;4.44;100.00
2188;BME280;1100;52.014;8.540;2023-12-20T01:33:29;99869.44;;;4.42;100.00
2188;BME280;1100;52.014;8.540;2023-12-20T01:35:54;99864.34;;;4.41;100.00
2188;BME280;1100;52.014;8.540;2023-12-20T01:38:19;99868.25;;;4.40;100.00
2188;BME280;1100;52.014;8.540;2023-12-20T01:40:45;99874.16;;;4.42;100.00
2188;BME280;1100;52.014;8.540;2023-12-20T01:43:10;99867.09;;;4.41;100.00
2188;BME280;1100;52.014;8.540;2023-12-20T01:45:37;99863.53;;;4.40;100.00
2188;BME280;1100;52.014;8.540;2023-12-20T01:48:04;99863.16;;;4.38;100.00
2188;BME280;1100;52.014;8.540;2023-12-20T01:50:31;99873.81;;;4.36;100.00
2188;BME280;1100;52.014;8.540;2023-12-20T01:52:58;99874.22;;;4.34;100.00
2188;BME280;1100;52.014;8.540;2023-12-20T01:55:25;99873.00;;;4.35;100.00
2188;BME280;1100;52.014;8.540;2023-12-20T01:57:52;99869.47;;;4.35;100.00
2188;BME280;1100;52.014;8.540;2023-12-20T02:00:18;99869.88;;;4.33;100.00
2188;BME280;1100;52.014;8.540;2023-12-20T02:02:45;99866.34;;;4.33;100.00
2188;BME280;1100;52.014;8.540;2023-12-20T02:05:11;99862.00;;;4.32;100.00
2188;BME280;1100;52.014;8.540;2023-12-20T02:07:37;99858.91;;;4.30;100.00
2188;BME280;1100;52.014;8.540;2023-12-20T02:10:03;99853.41;;;4.22;100.00
2188;BME280;1100;52.014;8.540;2023-12-20T02:12:29;99855.00;;;4.16;100.00
2188;BME280;1100;52.014;8.540;2023-12-20T02:14:55;99849.56;;;4.13;100.00
2188;BME280;1100;52.014;8.540;2023-12-20T02:17:20;99847.59;;;4.09;100.00
2188;BME280;1100;52.014;8.540;2023-12-20T02:19:45;99841.31;;;4.09;100.00
2188;BME280;1100;52.014;8.540;2023-12-20T02:22:11;99823.66;;;4.06;100.00
2188;BME280;1100;52.014;8.540;2023-12-20T02:24:37;99823.66;;;4.06;100.00
2188;BME280;1100;52.014;8.540;2023-12-20T02:27:05;99837.81;;;4.05;100.00
2188;BME280;1100;52.014;8.540;2023-12-20T02:29:31;99837.81;;;4.01;100.00
2188;BME280;1100;52.014;8.540;2023-12-20T02:31:57;99843.31;;;4.01;100.00
2188;BME280;1100;52.014;8.540;2023-12-20T02:34:22;99848.81;;;4.01;100.00
2188;BME280;1100;52.014;8.540;2023-12-20T02:36:48;99849.56;;;4.05;100.00
2188;BME280;1100;52.014;8.540;2023-12-20T02:39:13;99852.72;;;4.07;100.00
2188;BME280;1100;52.014;8.540;2023-12-20T02:41:39;99848.78;;;4.08;100.00
2188;BME280;1100;52.014;8.540;2023-12-20T02:44:04;99849.16;;;4.10;100.00
2188;BME280;1100;52.014;8.540;2023-12-20T02:46:29;99838.16;;;4.10;100.00
2188;BME280;1100;52.014;8.540;2023-12-20T02:48:55;99835.00;;;4.12;100.00
2188;BME280;1100;52.014;8.540;2023-12-20T02:51:20;99841.31;;;4.13;100.00
2188;BME280;1100;52.014;8.540;2023-12-20T02:53:45;99836.97;;;4.11;100.00
2188;BME280;1100;52.014;8.540;2023-12-20T02:56:11;99843.25;;;4.12;100.00
2188;BME280;1100;52.014;8.540;2023-12-20T02:58:36;99843.25;;;4.12;100.00
2188;BME280;1100;52.014;8.540;2023-12-20T03:01:01;99833.06;;;4.09;100.00
2188;BME280;1100;52.014;8.540;2023-12-20T03:03:27;99830.72;;;4.07;100.00
2188;BME280;1100;52.014;8.540;2023-12-20T03:05:52;99831.09;;;4.06;100.00
2188;BME280;1100;52.014;8.540;2023-12-20T03:08:17;99824.03;;;4.05;100.00
2188;BME280;1100;52.014;8.540;2023-12-20T03:10:43;99829.94;;;4.03;100.00
2188;BME280;1100;52.014;8.540;2023-12-20T03:13:08;99827.97;;;4.04;100.00
2188;BME280;1100;52.014;8.540;2023-12-20T03:15:34;99824.84;;;4.02;100.00
2188;BME280;1100;52.014;8.540;2023-12-20T03:17:59;99821.31;;;4.01;100.00
2188;BME280;1100;52.014;8.540;2023-12-20T03:20:25;99832.72;;;3.99;100.00
2188;BME280;1100;52.014;8.540;2023-12-20T03:22:51;99836.25;;;3.96;100.00
2188;BME280;1100;52.014;8.540;2023-12-20T03:25:16;99840.97;;;3.96;100.00
2188;BME280;1100;52.014;8.540;2023-12-20T03:27:42;99836.66;;;3.95;100.00
2188;BME280;1100;52.014;8.540;2023-12-20T03:30:07;99840.97;;;3.96;100.00
2188;BME280;1100;52.014;8.540;2023-12-20T03:32:33;99843.72;;;3.96;100.00
2188;BME280;1100;52.014;8.540;2023-12-20T03:34:58;99834.66;;;3.95;100.00
2188;BME280;1100;52.014;8.540;2023-12-20T03:37:23;99840.56;;;3.94;100.00
2188;BME280;1100;52.014;8.540;2023-12-20T03:39:49;99827.63;;;3.91;100.00
2188;BME280;1100;52.014;8.540;2023-12-20T03:42:14;99822.53;;;3.89;100.00
2188;BME280;1100;52.014;8.540;2023-12-20T03:44:39;99824.50;;;3.89;100.00
2188;BME280;1100;52.014;8.540;2023-12-20T03:47:07;99823.31;;;3.86;100.00
2188;BME280;1100;52.014;8.540;2023-12-20T03:49:33;99823.31;;;3.86;100.00
2188;BME280;1100;52.014;8.540;2023-12-20T03:51:58;99815.88;;;3.86;100.00
2188;BME280;1100;52.014;8.540;2023-12-20T03:54:24;99808.00;;;3.85;100.00
2188;BME280;1100;52.014;8.540;2023-12-20T03:56:49;99812.31;;;3.86;100.00
2188;BME280;1100;52.014;8.540;2023-12-20T03:59:15;99809.97;;;3.84;100.00
2188;BME280;1100;52.014;8.540;2023-12-20T04:01:44;99810.38;;;3.86;100.00
2188;BME280;1100;52.014;8.540;2023-12-20T04:04:13;99803.31;;;3.85;100.00
2188;BME280;1100;52.014;8.540;2023-12-20T04:06:38;99807.22;;;3.84;100.00
2188;BME280;1100;52.014;8.540;2023-12-20T04:09:04;99805.66;;;3.83;100.00
2188;BME280;1100;52.014;8.540;2023-12-20T04:11:34;99799.00;;;3.81;100.00
2188;BME280;1100;52.014;8.540;2023-12-20T04:13:59;99805.66;;;3.80;100.00
2188;BME280;1100;52.014;8.540;2023-12-20T04:16:25;99803.31;;;3.78;100.00
2188;BME280;1100;52.014;8.540;2023-12-20T04:18:51;99808.06;;;3.78;100.00
2188;BME280;1100;52.014;8.540;2023-12-20T04:21:16;99801.75;;;3.77;100.00
2188;BME280;1100;52.014;8.540;2023-12-20T04:23:41;99793.50;;;3.77;100.00
2188;BME280;1100;52.014;8.540;2023-12-20T04:26:07;99799.81;;;3.78;100.00
2188;BME280;1100;52.014;8.540;2023-12-20T04:28:32;99789.16;;;3.80;100.00
2188;BME280;1100;52.014;8.540;2023-12-20T04:30:57;99800.16;;;3.80;100.00
2188;BME280;1100;52.014;8.540;2023-12-20T04:33:23;99796.66;;;3.79;100.00
2188;BME280;1100;52.014;8.540;2023-12-20T04:35:48;99793.91;;;3.79;100.00
2188;BME280;1100;52.014;8.540;2023-12-20T04:38:13;99797.81;;;3.78;100.00
2188;BME280;1100;52.014;8.540;2023-12-20T04:40:39;99813.16;;;3.79;100.00
2188;BME280;1100;52.014;8.540;2023-12-20T04:43:06;99798.59;;;3.79;100.00
2188;BME280;1100;52.014;8.540;2023-12-20T04:45:34;99803.31;;;3.78;100.00
2188;BME280;1100;52.014;8.540;2023-12-20T04:48:01;99806.84;;;3.79;100.00
2188;BME280;1100;52.014;8.540;2023-12-20T04:50:27;99799.41;;;3.79;100.00
2188;BME280;1100;52.014;8.540;2023-12-20T04:52:53;99791.16;;;3.79;100.00
2188;BME280;1100;52.014;8.540;2023-12-20T04:55:18;99800.16;;;3.80;100.00
2188;BME280;1100;52.014;8.540;2023-12-20T04:57:43;99807.25;;;3.81;100.00
2188;BME280;1100;52.014;8.540;2023-12-20T05:00:09;99805.25;;;3.81;100.00
2188;BME280;1100;52.014;8.540;2023-12-20T05:02:35;99790.75;;;3.81;100.00
2188;BME280;1100;52.014;8.540;2023-12-20T05:05:01;99797.03;;;3.81;100.00
2188;BME280;1100;52.014;8.540;2023-12-20T05:07:27;99788.00;;;3.81;100.00
2188;BME280;1100;52.014;8.540;2023-12-20T05:09:52;99786.41;;;3.80;100.00
2188;BME280;1100;52.014;8.540;2023-12-20T05:12:18;99789.16;;;3.80;100.00
2188;BME280;1100;52.014;8.540;2023-12-20T05:14:43;99790.75;;;3.81;100.00
2188;BME280;1100;52.014;8.540;2023-12-20T05:17:09;99778.97;;;3.80;100.00
2188;BME280;1100;52.014;8.540;2023-12-20T05:19:34;99780.53;;;3.81;100.00
2188;BME280;1100;52.014;8.540;2023-12-20T05:22:01;99773.88;;;3.79;100.00
2188;BME280;1100;52.014;8.540;2023-12-20T05:24:26;99769.56;;;3.78;100.00
2188;BME280;1100;52.014;8.540;2023-12-20T05:26:52;99777.00;;;3.81;100.00
2188;BME280;1100;52.014;8.540;2023-12-20T05:29:17;99773.06;;;3.82;100.00
2188;BME280;1100;52.014;8.540;2023-12-20T05:31:42;99778.16;;;3.83;100.00
2188;BME280;1100;52.014;8.540;2023-12-20T05:34:08;99787.97;;;3.84;100.00
2188;BME280;1100;52.014;8.540;2023-12-20T05:36:33;99772.66;;;3.83;100.00
2188;BME280;1100;52.014;8.540;2023-12-20T05:38:58;99776.59;;;3.82;100.00
2188;BME280;1100;52.014;8.540;2023-12-20T05:41:24;99782.09;;;3.82;100.00
2188;BME280;1100;52.014;8.540;2023-12-20T05:43:49;99777.78;;;3.81;100.00
2188;BME280;1100;52.014;8.540;2023-12-20T05:46:14;99776.59;;;3.82;100.00
2188;BME280;1100;52.014;8.540;2023-12-20T05:48:40;99790.72;;;3.84;100.00
2188;BME280;1100;52.014;8.540;2023-12-20T05:51:05;99784.47;;;3.84;100.00
2188;BME280;1100;52.014;8.540;2023-12-20T05:53:30;99795.06;;;3.85;100.00
2188;BME280;1100;52.014;8.540;2023-12-20T05:55:56;99786.81;;;3.85;100.00
2188;BME280;1100;52.014;8.540;2023-12-20T05:58:21;99790.72;;;3.84;100.00
2188;BME280;1100;52.014;8.540;2023-12-20T06:00:46;99794.66;;;3.87;100.00
2188;BME280;1100;52.014;8.540;2023-12-20T06:03:12;99793.88;;;3.86;100.00
2188;BME280;1100;52.014;8.540;2023-12-20T06:05:37;99812.72;;;3.88;100.00
2188;BME280;1100;52.014;8.540;2023-12-20T06:08:02;99796.63;;;3.86;100.00
2188;BME280;1100;52.014;8.540;2023-12-20T06:10:28;99798.97;;;3.84;100.00
2188;BME280;1100;52.014;8.540;2023-12-20T06:12:54;99796.22;;;3.84;100.00
2188;BME280;1100;52.014;8.540;2023-12-20T06:15:20;99798.56;;;3.86;100.00
2188;BME280;1100;52.014;8.540;2023-12-20T06:17:45;99798.59;;;3.82;100.00
2188;BME280;1100;52.014;8.540;2023-12-20T06:20:12;99797.00;;;3.85;100.00
2188;BME280;1100;52.014;8.540;2023-12-20T06:22:38;99800.56;;;3.85;100.00
2188;BME280;1100;52.014;8.540;2023-12-20T06:25:04;99792.66;;;3.88;100.00
2188;BME280;1100;52.014;8.540;2023-12-20T06:27:30;99790.72;;;3.88;100.00
2188;BME280;1100;52.014;8.540;2023-12-20T06:29:57;99796.59;;;3.90;100.00
2188;BME280;1100;52.014;8.540;2023-12-20T06:32:23;99790.72;;;3.88;100.00
2188;BME280;1100;52.014;8.540;2023-12-20T06:34:49;99794.25;;;3.89;100.00
2188;BME280;1100;52.014;8.540;2023-12-20T06:37:14;99783.25;;;3.89;100.00
2188;BME280;1100;52.014;8.540;2023-12-20T06:39:40;99793.84;;;3.90;100.00
2188;BME280;1100;52.014;8.540;2023-12-20T06:42:05;99790.72;;;3.88;100.00
2188;BME280;1100;52.014;8.540;2023-12-20T06:44:31;99784.41;;;3.88;100.00
2188;BME280;1100;52.014;8.540;2023-12-20T06:46:56;99795.41;;;3.88;100.00
2188;BME280;1100;52.014;8.540;2023-12-20T06:49:22;99776.97;;;3.88;100.00
2188;BME280;1100;52.014;8.540;2023-12-20T06:51:47;99785.22;;;3.84;100.00
2188;BME280;1100;52.014;8.540;2023-12-20T06:54:12;99765.22;;;3.84;100.00
2188;BME280;1100;52.014;8.540;2023-12-20T06:56:38;99764.81;;;3.85;100.00
2188;BME280;1100;52.014;8.540;2023-12-20T06:59:03;99767.97;;;3.84;100.00
2188;BME280;1100;52.014;8.540;2023-12-20T07:01:28;99782.47;;;3.84;100.00
2188;BME280;1100;52.014;8.540;2023-12-20T07:03:53;99785.63;;;3.86;100.00
2188;BME280;1100;52.014;8.540;2023-12-20T07:06:19;99776.97;;;3.84;100.00
2188;BME280;1100;52.014;8.540;2023-12-20T07:08:45;99785.63;;;3.86;100.00
2188;BME280;1100;52.014;8.540;2023-12-20T07:11:11;99778.91;;;3.88;100.00
2188;BME280;1100;52.014;8.540;2023-12-20T07:13:36;99782.06;;;3.90;100.00
2188;BME280;1100;52.014;8.540;2023-12-20T07:16:02;99771.06;;;3.90;100.00
2188;BME280;1100;52.014;8.540;2023-12-20T07:18:28;99785.59;;;3.90;100.00
2188;BME280;1100;52.014;8.540;2023-12-20T07:20:53;99786.75;;;3.93;100.00
2188;BME280;1100;52.014;8.540;2023-12-20T07:23:19;99774.56;;;3.94;100.00
2188;BME280;1100;52.014;8.540;2023-12-20T07:25:45;99771.41;;;3.95;100.00
2188;BME280;1100;52.014;8.540;2023-12-20T07:28:10;99761.22;;;3.96;100.00
2188;BME280;1100;52.014;8.540;2023-12-20T07:30:36;99772.59;;;3.98;100.00
2188;BME280;1100;52.014;8.540;2023-12-20T07:33:01;99772.59;;;3.98;100.00
2188;BME280;1100;52.014;8.540;2023-12-20T07:35:27;99767.50;;;4.00;100.00
2188;BME280;1100;52.014;8.540;2023-12-20T07:37:53;99783.59;;;4.02;100.00
2188;BME280;1100;52.014;8.540;2023-12-20T07:40:18;99768.25;;;4.01;100.00
2188;BME280;1100;52.014;8.540;2023-12-20T07:42:43;99772.59;;;4.02;100.00
2188;BME280;1100;52.014;8.540;2023-12-20T07:45:09;99777.28;;;4.05;100.00
2188;BME280;1100;52.014;8.540;2023-12-20T07:47:35;99778.84;;;4.06;100.00
2188;BME280;1100;52.014;8.540;2023-12-20T07:50:01;99778.84;;;4.09;100.00
2188;BME280;1100;52.014;8.540;2023-12-20T07:52:26;99791.38;;;4.10;100.00
2188;BME280;1100;52.014;8.540;2023-12-20T07:54:51;99776.84;;;4.10;100.00
2188;BME280;1100;52.014;8.540;2023-12-20T07:57:16;99781.19;;;4.11;100.00
2188;BME280;1100;52.014;8.540;2023-12-20T07:59:42;99783.88;;;4.15;100.00
2188;BME280;1100;52.014;8.540;2023-12-20T08:02:09;99784.28;;;4.17;100.00
2188;BME280;1100;52.014;8.540;2023-12-20T08:04:34;99772.47;;;4.16;100.00
2188;BME280;1100;52.014;8.540;2023-12-20T08:07:00;99771.31;;;4.17;100.00
2188;BME280;1100;52.014;8.540;2023-12-20T08:09:25;99763.06;;;4.17;100.00
2188;BME280;1100;52.014;8.540;2023-12-20T08:11:51;99768.16;;;4.19;100.00
2188;BME280;1100;52.014;8.540;2023-12-20T08:14:16;99779.53;;;4.21;100.00
2188;BME280;1100;52.014;8.540;2023-12-20T08:16:41;99771.66;;;4.23;100.00
2188;BME280;1100;52.014;8.540;2023-12-20T08:19:07;99767.72;;;4.24;100.00
2188;BME280;1100;52.014;8.540;2023-12-20T08:21:32;99759.06;;;4.26;100.00
2188;BME280;1100;52.014;8.540;2023-12-20T08:23:58;99761.00;;;4.29;100.00
2188;BME280;1100;52.014;8.540;2023-12-20T08:26:25;99782.59;;;4.30;100.00
2188;BME280;1100;52.014;8.540;2023-12-20T08:28:51;99766.88;;;4.34;100.00
2188;BME280;1100;52.014;8.540;2023-12-20T08:31:17;99760.97;;;4.32;100.00
2188;BME280;1100;52.014;8.540;2023-12-20T08:33:44;99764.94;;;4.31;100.00
2188;BME280;1100;52.014;8.540;2023-12-20T08:36:10;99773.94;;;4.32;100.00
2188;BME280;1100;52.014;8.540;2023-12-20T08:38:35;99764.94;;;4.31;100.00
2188;BME280;1100;52.014;8.540;2023-12-20T08:41:01;99764.53;;;4.33;100.00
2188;BME280;1100;52.014;8.540;2023-12-20T08:43:28;99750.78;;;4.33;100.00
2188;BME280;1100;52.014;8.540;2023-12-20T08:45:53;99762.19;;;4.31;100.00
2188;BME280;1100;52.014;8.540;2023-12-20T08:48:19;99753.94;;;4.31;100.00
2188;BME280;1100;52.014;8.540;2023-12-20T08:50:44;99763.34;;;4.30;100.00
2188;BME280;1100;52.014;8.540;2023-12-20T08:53:09;99748.03;;;4.29;100.00
2188;BME280;1100;52.014;8.540;2023-12-20T08:55:34;99747.66;;;4.27;100.00
2188;BME280;1100;52.014;8.540;2023-12-20T08:58:00;99756.28;;;4.29;100.00
2188;BME280;1100;52.014;8.540;2023-12-20T09:00:25;99755.88;;;4.31;100.00
2188;BME280;1100;52.014;8.540;2023-12-20T09:02:53;99740.56;;;4.30;100.00
2188;BME280;1100;52.014;8.540;2023-12-20T09:05:19;99735.47;;;4.28;100.00
2188;BME280;1100;52.014;8.540;2023-12-20T09:07:45;99745.28;;;4.26;100.00
2188;BME280;1100;52.014;8.540;2023-12-20T09:10:11;99732.34;;;4.26;100.00
2188;BME280;1100;52.014;8.540;2023-12-20T09:12:36;99734.69;;;4.24;100.00
2188;BME280;1100;52.014;8.540;2023-12-20T09:15:05;99730.38;;;4.23;100.00
2188;BME280;1100;52.014;8.540;2023-12-20T09:17:30;99729.66;;;4.19;100.00
2188;BME280;1100;52.014;8.540;2023-12-20T09:19:56;99736.34;;;4.14;100.00
2188;BME280;1100;52.014;8.540;2023-12-20T09:22:21;99734.00;;;4.13;100.00
2188;BME280;1100;52.014;8.540;2023-12-20T09:24:47;99732.41;;;4.15;100.00
2188;BME280;1100;52.014;8.540;2023-12-20T09:27:12;99720.59;;;4.18;100.00
2188;BME280;1100;52.014;8.540;2023-12-20T09:29:37;99711.94;;;4.23;100.00
2188;BME280;1100;52.014;8.540;2023-12-20T09:32:03;99711.13;;;4.27;100.00
2188;BME280;1100;52.014;8.540;2023-12-20T09:34:28;99711.84;;;4.31;100.00
2188;BME280;1100;52.014;8.540;2023-12-20T09:36:54;99703.59;;;4.34;100.00
2188;BME280;1100;52.014;8.540;2023-12-20T09:39:21;99697.66;;;4.36;100.00
2188;BME280;1100;52.014;8.540;2023-12-20T09:42:05;99684.31;;;4.34;100.00
2188;BME280;1100;52.014;8.540;2023-12-20T09:44:31;99673.34;;;4.31;100.00
2188;BME280;1100;52.014;8.540;2023-12-20T09:46:58;99694.63;;;4.23;100.00
2188;BME280;1100;52.014;8.540;2023-12-20T09:49:25;99694.63;;;4.19;100.00
2188;BME280;1100;52.014;8.540;2023-12-20T09:51:53;99684.03;;;4.18;100.00
2188;BME280;1100;52.014;8.540;2023-12-20T09:54:20;99687.59;;;4.15;100.00
2188;BME280;1100;52.014;8.540;2023-12-20T09:56:46;99675.03;;;4.14;100.00
2188;BME280;1100;52.014;8.540;2023-12-20T09:59:12;99675.03;;;4.17;100.00
2188;BME280;1100;52.014;8.540;2023-12-20T10:01:42;99689.94;;;4.20;100.00
2188;BME280;1100;52.014;8.540;2023-12-20T10:04:09;99698.97;;;4.20;100.00
2188;BME280;1100;52.014;8.540;2023-12-20T10:06:46;99697.75;;;4.25;100.00
2188;BME280;1100;52.014;8.540;2023-12-20T10:09:12;99696.94;;;4.28;100.00
2188;BME280;1100;52.014;8.540;2023-12-20T10:11:38;99690.63;;;4.31;100.00
2188;BME280;1100;52.014;8.540;2023-12-20T10:14:05;99688.22;;;4.37;100.00
2188;BME280;1100;52.014;8.540;2023-12-20T10:16:31;99682.28;;;4.42;100.00
2188;BME280;1100;52.014;8.540;2023-12-20T10:18:57;99694.03;;;4.46;100.00
2188;BME280;1100;52.014;8.540;2023-12-20T10:21:23;99681.41;;;4.49;100.00
2188;BME280;1100;52.014;8.540;2023-12-20T10:23:49;99679.44;;;4.53;100.00
2188;BME280;1100;52.014;8.540;2023-12-20T10:26:35;99688.06;;;4.55;100.00
2188;BME280;1100;52.014;8.540;2023-12-20T10:29:01;99679.78;;;4.55;100.00
2188;BME280;1100;52.014;8.540;2023-12-20T10:31:34;99669.53;;;4.59;100.00
2188;BME280;1100;52.014;8.540;2023-12-20T10:34:01;99669.53;;;4.59;100.00
2188;BME280;1100;52.014;8.540;2023-12-20T10:36:29;99670.38;;;4.56;100.00
2188;BME280;1100;52.014;8.540;2023-12-20T10:38:58;99678.66;;;4.53;100.00
2188;BME280;1100;52.014;8.540;2023-12-20T10:41:26;99670.06;;;4.47;100.00
2188;BME280;1100;52.014;8.540;2023-12-20T10:44:01;99672.03;;;4.43;100.00
2188;BME280;1100;52.014;8.540;2023-12-20T10:46:27;99672.84;;;4.40;100.00
2188;BME280;1100;52.014;8.540;2023-12-20T10:48:57;99688.59;;;4.39;100.00
2188;BME280;1100;52.014;8.540;2023-12-20T10:51:23;99685.06;;;4.39;100.00
2188;BME280;1100;52.014;8.540;2023-12-20T10:53:50;99676.47;;;4.33;100.00
2188;BME280;1100;52.014;8.540;2023-12-20T10:56:17;99672.94;;;4.29;100.00
2188;BME280;1100;52.014;8.540;2023-12-20T10:58:43;99669.06;;;4.22;100.00
2188;BME280;1100;52.014;8.540;2023-12-20T11:01:12;99667.91;;;4.20;100.00
2188;BME280;1100;52.014;8.540;2023-12-20T11:03:38;99659.28;;;4.18;100.00
2188;BME280;1100;52.014;8.540;2023-12-20T11:06:21;99663.97;;;4.21;100.00
2188;BME280;1100;52.014;8.540;2023-12-20T11:08:53;99650.63;;;4.19;100.00
2188;BME280;1100;52.014;8.540;2023-12-20T11:11:32;99664.38;;;4.19;100.00
2188;BME280;1100;52.014;8.540;2023-12-20T11:16:28;99667.09;;;4.23;100.00
2188;BME280;1100;52.014;8.540;2023-12-20T11:18:53;99664.75;;;4.25;100.00
2188;BME280;1100;52.014;8.540;2023-12-20T11:21:19;99676.56;;;4.22;100.00
2188;BME280;1100;52.014;8.540;2023-12-20T11:23:45;99669.47;;;4.24;100.00
2188;BME280;1100;52.014;8.540;2023-12-20T11:26:13;99670.59;;;4.27;100.00
2188;BME280;1100;52.014;8.540;2023-12-20T11:28:40;99654.47;;;4.29;100.00
2188;BME280;1100;52.014;8.540;2023-12-20T11:31:05;99669.38;;;4.35;100.00
2188;BME280;1100;52.014;8.540;2023-12-20T11:33:36;99661.84;;;4.40;100.00
2188;BME280;1100;52.014;8.540;2023-12-20T11:36:02;99651.22;;;4.42;100.00
2188;BME280;1100;52.014;8.540;2023-12-20T11:38:35;99639.81;;;4.43;100.00
2188;BME280;1100;52.014;8.540;2023-12-20T11:41:01;99634.63;;;4.49;100.00
2188;BME280;1100;52.014;8.540;2023-12-20T11:43:39;99636.91;;;4.58;100.00
2188;BME280;1100;52.014;8.540;2023-12-20T11:46:06;99620.31;;;4.65;100.00
2188;BME280;1100;52.014;8.540;2023-12-20T11:48:34;99623.09;;;4.61;100.00
2188;BME280;1100;52.014;8.540;2023-12-20T11:50:59;99629.81;;;4.60;100.00
2188;BME280;1100;52.014;8.540;2023-12-20T11:53:25;99633.75;;;4.59;100.00
2188;BME280;1100;52.014;8.540;2023-12-20T11:55:50;99627.06;;;4.60;100.00
2188;BME280;1100;52.014;8.540;2023-12-20T11:58:16;99615.25;;;4.60;100.00
2188;BME280;1100;52.014;8.540;2023-12-20T12:00:42;99617.59;;;4.61;100.00
2188;BME280;1100;52.014;8.540;2023-12-20T12:03:08;99598.28;;;4.65;100.00
2188;BME280;1100;52.014;8.540;2023-12-20T12:05:34;99606.94;;;4.67;100.00
2188;BME280;1100;52.014;8.540;2023-12-20T12:08:00;99580.97;;;4.65;100.00
2188;BME280;1100;52.014;8.540;2023-12-20T12:10:26;99603.38;;;4.67;100.00
2188;BME280;1100;52.014;8.540;2023-12-20T12:12:51;99599.84;;;4.66;100.00
2188;BME280;1100;52.014;8.540;2023-12-20T12:15:17;99601.44;;;4.67;100.00
2188;BME280;1100;52.014;8.540;2023-12-20T12:17:42;99609.69;;;4.67;100.00
2188;BME280;1100;52.014;8.540;2023-12-20T12:20:08;99601.38;;;4.71;100.00
2188;BME280;1100;52.014;8.540;2023-12-20T12:22:35;99604.09;;;4.74;100.00
2188;BME280;1100;52.014;8.540;2023-12-20T12:25:12;99593.88;;;4.75;100.00
2188;BME280;1100;52.014;8.540;2023-12-20T12:27:40;99593.03;;;4.78;100.00
2188;BME280;1100;52.014;8.540;2023-12-20T12:30:06;99610.75;;;4.77;100.00
2188;BME280;1100;52.014;8.540;2023-12-20T12:32:35;99603.66;;;4.80;100.00
2188;BME280;1100;52.014;8.540;2023-12-20T12:35:03;99587.84;;;4.84;100.00
2188;BME280;1100;52.014;8.540;2023-12-20T12:37:31;99577.16;;;4.90;100.00
2188;BME280;1100;52.014;8.540;2023-12-20T12:39:56;99586.94;;;4.94;100.00
2188;BME280;1100;52.014;8.540;2023-12-20T12:42:21;99584.16;;;4.94;100.00
2188;BME280;1100;52.014;8.540;2023-12-20T12:44:50;99577.53;;;4.92;100.00
2188;BME280;1100;52.014;8.540;2023-12-20T12:47:16;99584.25;;;4.91;100.00
2188;BME280;1100;52.014;8.540;2023-12-20T12:49:41;99587.81;;;4.88;100.00
2188;BME280;1100;52.014;8.540;2023-12-20T12:52:07;99578.06;;;4.79;100.00
2188;BME280;1100;52.014;8.540;2023-12-20T12:54:32;99590.72;;;4.73;100.00
2188;BME280;1100;52.014;8.540;2023-12-20T12:56:57;99584.13;;;4.67;100.00
2188;BME280;1100;52.014;8.540;2023-12-20T12:59:23;99571.19;;;4.60;100.00
2188;BME280;1100;52.014;8.540;2023-12-20T13:01:48;99575.97;;;4.56;100.00
2188;BME280;1100;52.014;8.540;2023-12-20T13:04:14;99581.91;;;4.54;100.00
2188;BME280;1100;52.014;8.540;2023-12-20T13:06:39;99567.72;;;4.56;100.00
2188;BME280;1100;52.014;8.540;2023-12-20T13:09:06;99583.44;;;4.55;100.00
2188;BME280;1100;52.014;8.540;2023-12-20T13:11:32;99587.41;;;4.54;100.00
2188;BME280;1100;52.014;8.540;2023-12-20T13:13:57;99583.09;;;4.53;100.00
2188;BME280;1100;52.014;8.540;2023-12-20T13:16:23;99601.56;;;4.53;100.00
2188;BME280;1100;52.014;8.540;2023-12-20T13:18:49;99603.19;;;4.50;100.00